createdAt,value
2022-12-03T00:00:35.992Z,49.67
2022-12-03T00:03:03.146Z,49.54
2022-12-03T00:05:34.458Z,49.49
2022-12-03T00:08:01.661Z,49.41
2022-12-03T00:10:30.732Z,49.68
2022-12-03T00:15:51.302Z,48.42
2022-12-03T00:18:20.123Z,49.03
2022-12-03T00:20:46.923Z,48.88
2022-12-03T00:23:14.650Z,49.18
2022-12-03T00:25:41.690Z,48.79
2022-12-03T00:28:09.320Z,49.67
2022-12-03T00:33:27.020Z,48.80
2022-12-03T00:39:12.586Z,48.88
2022-12-03T00:41:39.735Z,49.28
2022-12-03T00:44:06.908Z,49.17
2022-12-03T00:46:36.240Z,48.60
2022-12-03T00:49:07.431Z,48.20
2022-12-03T00:51:40.102Z,48.46
2022-12-03T00:56:57.566Z,49.62
2022-12-03T00:59:37.094Z,49.63
2022-12-03T01:02:05.936Z,50.03
2022-12-03T01:04:35.526Z,49.30
2022-12-03T01:07:04.802Z,50.11
2022-12-03T01:12:18.937Z,49.62
2022-12-03T01:14:49.760Z,48.91
2022-12-03T01:20:12.675Z,50.37
2022-12-03T01:22:40.636Z,49.65
2022-12-03T01:25:08.169Z,51.57
2022-12-03T01:28:12.227Z,51.02
2022-12-03T01:30:45.039Z,51.85
2022-12-03T01:33:13.266Z,54.35
2022-12-03T01:38:26.587Z,57.63
2022-12-03T01:44:12.848Z,57.81
2022-12-03T01:46:40.670Z,58.37
2022-12-03T01:49:10.726Z,58.32
2022-12-03T01:51:42.693Z,57.95
2022-12-03T01:54:35.534Z,56.27
2022-12-03T01:57:04.806Z,57.37
2022-12-03T01:59:33.853Z,58.05
2022-12-03T02:02:09.112Z,56.28
2022-12-03T02:13:18.024Z,58.06
2022-12-03T02:16:00.689Z,59.15
2022-12-03T02:24:15.973Z,61.41
2022-12-03T02:26:51.649Z,59.54
2022-12-03T02:29:28.318Z,59.07
2022-12-03T02:35:19.349Z,60.64
2022-12-03T02:37:50.606Z,59.04
2022-12-03T02:40:20.126Z,60.37
2022-12-03T02:45:31.614Z,61.25
2022-12-03T02:48:13.318Z,59.87
2022-12-03T02:53:30.828Z,60.58
2022-12-03T03:05:24.879Z,66.02
2022-12-03T03:07:56.328Z,65.35
2022-12-03T03:10:26.130Z,64.48
2022-12-03T03:13:00.987Z,64.54
2022-12-03T03:15:35.215Z,64.79
2022-12-03T03:18:09.389Z,65.91
2022-12-03T03:20:36.439Z,65.04
2022-12-03T03:23:03.999Z,66.05
2022-12-03T03:25:32.724Z,66.78
2022-12-03T03:28:01.817Z,65.96
2022-12-03T03:30:30.834Z,66.63
2022-12-03T03:33:05.130Z,66.74
2022-12-03T03:35:32.232Z,66.79
2022-12-03T03:37:59.645Z,66.50
2022-12-03T03:40:26.683Z,66.50
2022-12-03T03:42:53.591Z,66.01
2022-12-03T03:45:24.094Z,65.91
2022-12-03T03:47:59.403Z,66.83
2022-12-03T03:50:26.728Z,65.72
2022-12-03T03:53:01.776Z,65.69
2022-12-03T03:55:32.441Z,65.98
2022-12-03T03:58:03.381Z,66.66
2022-12-03T04:00:34.667Z,65.91
2022-12-03T04:03:06.875Z,67.37
2022-12-03T04:05:34.732Z,67.12
2022-12-03T04:08:01.786Z,65.59
2022-12-03T04:10:28.925Z,65.62
2022-12-03T04:13:18.847Z,64.41
2022-12-03T04:16:14.281Z,65.24
2022-12-03T04:18:42.152Z,64.98
2022-12-03T04:21:09.468Z,63.56
2022-12-03T04:23:40.088Z,65.02
2022-12-03T04:26:09.014Z,65.22
2022-12-03T04:28:42.443Z,64.17
2022-12-03T04:31:13.295Z,62.95
2022-12-03T04:33:40.370Z,61.03
2022-12-03T04:36:09.320Z,59.86
2022-12-03T04:38:36.294Z,57.87
2022-12-03T04:41:04.230Z,55.06
2022-12-03T04:43:31.311Z,53.91
2022-12-03T04:45:58.933Z,55.67
2022-12-03T04:48:26.668Z,57.26
2022-12-03T04:50:53.936Z,58.10
2022-12-03T04:53:23.846Z,58.74
2022-12-03T04:55:52.017Z,59.23
2022-12-03T04:58:19.314Z,57.51
2022-12-03T05:00:50.261Z,58.70
2022-12-03T05:05:52.869Z,55.37
2022-12-03T05:08:20.340Z,53.86
2022-12-03T05:10:48.485Z,52.82
2022-12-03T05:13:15.778Z,52.57
2022-12-03T05:15:42.694Z,57.00
2022-12-03T05:18:14.836Z,57.38
2022-12-03T05:20:45.695Z,53.92
2022-12-03T05:23:19.719Z,53.18
2022-12-03T05:25:48.593Z,51.99
2022-12-03T05:28:18.737Z,51.97
2022-12-03T05:30:46.338Z,51.34
2022-12-03T05:33:14.039Z,51.77
2022-12-03T05:35:45.273Z,50.83
2022-12-03T05:38:12.568Z,50.63
2022-12-03T05:40:42.859Z,50.09
2022-12-03T05:43:11.541Z,50.25
2022-12-03T05:45:42.070Z,49.69
2022-12-03T05:48:13.251Z,50.62
2022-12-03T05:50:42.501Z,49.70
2022-12-03T05:53:11.102Z,52.47
2022-12-03T05:55:41.347Z,50.43
2022-12-03T05:58:08.587Z,50.26
2022-12-03T06:00:42.387Z,54.23
2022-12-03T06:03:10.944Z,54.91
2022-12-03T06:05:38.715Z,53.69
2022-12-03T06:08:08.232Z,51.53
2022-12-03T06:10:36.092Z,50.50
2022-12-03T06:13:02.760Z,49.81
2022-12-03T06:15:30.471Z,49.55
2022-12-03T06:18:02.845Z,49.49
2022-12-03T06:20:36.947Z,49.22
2022-12-03T06:23:07.898Z,48.94
2022-12-03T06:25:40.772Z,48.98
2022-12-03T06:28:09.854Z,48.60
2022-12-03T06:30:41.767Z,49.09
2022-12-03T06:33:09.852Z,50.72
2022-12-03T06:35:37.217Z,50.80
2022-12-03T06:38:04.695Z,50.78
2022-12-03T06:40:36.045Z,51.82
2022-12-03T06:43:03.048Z,50.42
2022-12-03T06:45:30.156Z,52.39
2022-12-03T06:48:01.625Z,52.64
2022-12-03T06:53:10.906Z,50.63
2022-12-03T06:55:37.995Z,51.40
2022-12-03T06:58:04.820Z,50.42
2022-12-03T07:00:31.885Z,50.82
2022-12-03T07:02:58.786Z,49.59
2022-12-03T07:05:26.828Z,48.82
2022-12-03T07:07:54.421Z,48.79
2022-12-03T07:10:21.181Z,51.52
2022-12-03T07:12:48.751Z,50.26
2022-12-03T07:15:16.318Z,51.14
2022-12-03T07:17:47.636Z,52.78
2022-12-03T07:20:25.753Z,52.96
2022-12-03T07:22:55.805Z,54.23
2022-12-03T07:25:24.643Z,54.37
2022-12-03T07:27:55.622Z,52.45
2022-12-03T07:30:29.433Z,50.56
2022-12-03T07:33:07.635Z,49.71
2022-12-03T07:35:41.429Z,48.75
2022-12-03T07:38:09.429Z,49.77
2022-12-03T07:40:36.627Z,49.30
2022-12-03T07:45:59.210Z,49.15
2022-12-03T07:54:18.839Z,47.66
2022-12-03T07:56:46.023Z,47.08
2022-12-03T07:59:12.912Z,46.53
2022-12-03T08:01:46.933Z,48.72
2022-12-03T08:04:14.709Z,52.15
2022-12-03T08:06:41.630Z,52.69
2022-12-03T08:09:13.164Z,50.43
2022-12-03T08:11:44.947Z,48.91
2022-12-03T08:14:12.152Z,49.38
2022-12-03T08:16:40.014Z,49.04
2022-12-03T08:19:08.796Z,47.80
2022-12-03T08:21:40.058Z,46.52
2022-12-03T08:24:07.477Z,46.30
2022-12-03T08:26:44.379Z,45.10
2022-12-03T08:29:13.962Z,44.94
2022-12-03T08:31:42.550Z,44.35
2022-12-03T08:34:10.078Z,44.12
2022-12-03T08:36:49.696Z,44.51
2022-12-03T08:39:17.803Z,45.75
2022-12-03T08:41:44.731Z,47.36
2022-12-03T08:44:15.356Z,47.01
2022-12-03T08:46:43.146Z,47.80
2022-12-03T08:49:09.883Z,47.78
2022-12-03T08:51:44.142Z,46.23
2022-12-03T08:54:11.193Z,48.77
2022-12-03T08:56:40.099Z,50.50
2022-12-03T08:59:12.148Z,53.07
2022-12-03T09:01:45.625Z,54.89
2022-12-03T09:04:13.506Z,54.62
2022-12-03T09:06:41.710Z,54.06
2022-12-03T09:09:08.723Z,51.42
2022-12-03T09:11:37.526Z,49.41
2022-12-03T09:14:04.781Z,48.88
2022-12-03T09:19:22.413Z,51.93
2022-12-03T09:21:50.301Z,54.22
2022-12-03T09:24:21.540Z,52.44
2022-12-03T09:26:50.620Z,52.32
2022-12-03T09:29:20.325Z,50.17
2022-12-03T09:31:52.135Z,50.55
2022-12-03T09:36:48.007Z,46.70
2022-12-03T09:39:14.934Z,47.08
2022-12-03T09:41:45.020Z,48.02
2022-12-03T09:44:17.455Z,48.20
2022-12-03T09:46:46.534Z,48.40
2022-12-03T09:52:31.263Z,47.06
2022-12-03T09:57:40.689Z,45.80
2022-12-03T10:03:29.912Z,46.58
2022-12-03T10:05:59.008Z,46.81
2022-12-03T10:08:32.484Z,48.22
2022-12-03T10:14:03.816Z,51.41
2022-12-03T10:16:35.447Z,52.17
2022-12-03T10:19:07.687Z,54.30
2022-12-03T10:21:41.878Z,55.12
2022-12-03T10:26:57.117Z,55.19
2022-12-03T10:29:33.227Z,54.42
2022-12-03T10:32:05.075Z,54.37
2022-12-03T10:34:33.005Z,52.96
2022-12-03T10:37:04.121Z,53.29
2022-12-03T10:39:33.448Z,54.89
2022-12-03T10:42:02.835Z,57.36
2022-12-03T10:44:31.990Z,56.30
2022-12-03T10:47:00.747Z,55.00
2022-12-03T10:49:29.358Z,53.01
2022-12-03T10:51:56.977Z,51.05
2022-12-03T10:54:25.539Z,50.51
2022-12-03T11:02:56.710Z,54.18
2022-12-03T11:08:37.576Z,53.39
2022-12-03T11:11:04.803Z,53.00
2022-12-03T11:13:33.853Z,53.90
2022-12-03T11:16:00.932Z,52.21
2022-12-03T11:18:27.727Z,51.02
2022-12-03T11:23:47.156Z,51.17
2022-12-03T11:29:24.356Z,54.23
2022-12-03T11:31:55.260Z,53.80
2022-12-03T11:34:23.360Z,54.35
2022-12-03T11:37:01.562Z,55.02
2022-12-03T11:39:31.002Z,54.28
2022-12-03T11:41:58.710Z,52.08
2022-12-03T11:44:27.738Z,51.87
2022-12-03T11:46:55.885Z,53.97
2022-12-03T11:50:00.022Z,55.69
2022-12-03T11:52:25.836Z,52.08
2022-12-03T11:54:52.933Z,50.61
2022-12-03T11:57:20.838Z,50.92
2022-12-03T12:00:01.638Z,51.97
2022-12-03T12:02:32.773Z,54.89
2022-12-03T12:05:00.485Z,55.23
2022-12-03T12:10:23.206Z,55.81
2022-12-03T12:12:55.217Z,53.94
2022-12-03T12:18:06.262Z,53.54
2022-12-03T12:20:36.302Z,53.38
2022-12-03T12:23:07.478Z,53.59
2022-12-03T12:28:55.134Z,55.82
2022-12-03T12:31:22.601Z,54.14
2022-12-03T12:33:51.554Z,53.15
2022-12-03T12:36:22.515Z,51.83
2022-12-03T12:38:53.501Z,50.17
2022-12-03T12:41:23.652Z,52.60
2022-12-03T12:43:51.059Z,53.63
2022-12-03T12:49:19.093Z,55.80
2022-12-03T12:57:13.729Z,55.69
2022-12-03T12:59:45.756Z,57.44
2022-12-03T13:02:13.342Z,58.87
2022-12-03T13:04:42.106Z,57.90
2022-12-03T13:07:18.174Z,58.33
2022-12-03T13:09:55.059Z,57.81
2022-12-03T13:12:24.113Z,57.57
2022-12-03T13:14:55.129Z,55.18
2022-12-03T13:17:30.954Z,55.04
2022-12-03T13:20:05.566Z,56.46
2022-12-03T13:22:34.722Z,57.11
2022-12-03T13:25:02.823Z,58.38
2022-12-03T13:30:11.876Z,56.83
2022-12-03T13:35:19.498Z,58.62
2022-12-03T13:37:46.626Z,59.32
2022-12-03T13:40:15.779Z,60.30
2022-12-03T13:42:43.933Z,60.67
2022-12-03T13:47:55.792Z,62.81
2022-12-03T13:50:26.850Z,63.79
2022-12-03T13:52:54.336Z,63.88
2022-12-03T13:55:27.272Z,63.89
2022-12-03T13:57:58.486Z,63.66
2022-12-03T14:00:27.313Z,63.77
2022-12-03T14:02:56.244Z,64.01
2022-12-03T14:05:23.017Z,66.35
2022-12-03T14:07:54.326Z,66.03
2022-12-03T14:10:22.187Z,67.01
2022-12-03T14:12:53.973Z,65.59
2022-12-03T14:15:20.855Z,65.75
2022-12-03T14:17:48.010Z,65.80
2022-12-03T14:20:14.952Z,66.50
2022-12-03T14:22:43.692Z,66.74
2022-12-03T14:25:12.197Z,66.68
2022-12-03T14:27:39.409Z,66.99
2022-12-03T14:30:07.776Z,65.79
2022-12-03T14:32:35.179Z,66.68
2022-12-03T14:35:09.670Z,66.74
2022-12-03T14:40:22.024Z,67.72
2022-12-03T14:42:49.686Z,66.40
2022-12-03T14:45:18.973Z,67.14
2022-12-03T14:47:52.074Z,67.31
2022-12-03T14:53:08.974Z,67.64
2022-12-03T14:55:36.209Z,65.76
2022-12-03T15:09:14.075Z,66.61
2022-12-03T15:14:30.537Z,66.70
2022-12-03T15:16:58.065Z,66.70
2022-12-03T15:19:29.490Z,67.12
2022-12-03T15:21:56.540Z,67.07
2022-12-03T15:24:28.935Z,67.19
2022-12-03T15:29:41.441Z,67.41
2022-12-03T15:34:55.115Z,66.94
2022-12-03T15:37:24.072Z,67.73
2022-12-03T15:39:58.479Z,67.60
2022-12-03T15:42:26.051Z,67.95
2022-12-03T15:45:11.944Z,68.65
2022-12-03T15:47:42.387Z,67.28
2022-12-03T15:50:25.253Z,66.89
2022-12-03T15:52:53.135Z,67.88
2022-12-03T15:55:25.021Z,68.47
2022-12-03T15:57:53.562Z,68.57
2022-12-03T16:20:24.138Z,68.79
2022-12-03T16:22:55.176Z,68.08
2022-12-03T16:25:23.745Z,67.93
2022-12-03T16:27:53.045Z,67.57
2022-12-03T16:30:23.621Z,68.11
2022-12-03T16:32:56.375Z,67.67
2022-12-03T16:35:25.739Z,67.86
2022-12-03T16:37:54.995Z,66.65
2022-12-03T16:40:24.985Z,67.44
2022-12-03T16:42:54.147Z,67.00
2022-12-03T16:45:25.293Z,67.88
2022-12-03T16:47:54.188Z,67.82
2022-12-03T16:53:03.658Z,68.71
2022-12-03T16:55:32.143Z,70.30
2022-12-03T16:58:00.156Z,69.62
2022-12-03T17:00:28.989Z,70.38
2022-12-03T17:41:03.298Z,69.83
2022-12-03T18:14:43.076Z,68.35
2022-12-03T18:17:14.915Z,69.82
2022-12-03T18:19:42.116Z,69.83
2022-12-03T18:22:09.904Z,70.27
2022-12-03T18:24:39.207Z,70.05
2022-12-03T18:27:06.338Z,69.16
2022-12-03T18:29:34.410Z,68.84
2022-12-03T18:32:01.428Z,69.35
2022-12-03T18:34:31.582Z,69.49
2022-12-03T18:37:00.116Z,69.51
2022-12-03T18:39:27.240Z,69.31
2022-12-03T18:41:54.322Z,68.50
2022-12-03T18:44:22.928Z,68.40
2022-12-03T18:46:54.239Z,67.26
2022-12-03T18:49:21.888Z,66.74
2022-12-03T18:51:53.272Z,66.01
2022-12-03T18:54:24.140Z,66.63
2022-12-03T18:56:52.889Z,68.27
2022-12-03T18:59:19.828Z,67.75
2022-12-03T19:01:46.488Z,67.73
2022-12-03T19:04:13.315Z,67.56
2022-12-03T19:06:42.045Z,68.25
2022-12-03T19:09:11.262Z,68.00
2022-12-03T19:11:37.976Z,68.46
2022-12-03T19:14:05.667Z,68.03
2022-12-03T19:16:33.687Z,67.46
2022-12-03T19:19:03.437Z,68.64
2022-12-03T19:21:34.052Z,67.84
2022-12-03T19:24:23.693Z,69.54
2022-12-03T19:26:48.809Z,70.01
2022-12-03T19:29:15.796Z,69.04
2022-12-03T19:31:46.381Z,69.40
2022-12-03T19:34:14.228Z,69.32
2022-12-03T19:36:41.253Z,68.86
2022-12-03T19:39:10.425Z,68.72
2022-12-03T19:41:38.066Z,68.87
2022-12-03T19:44:10.892Z,68.87
2022-12-03T19:46:40.120Z,70.60
2022-12-03T19:49:12.139Z,69.60
2022-12-03T19:51:39.026Z,68.10
2022-12-03T19:54:06.400Z,68.09
2022-12-03T19:56:33.311Z,66.46
2022-12-03T19:59:23.885Z,66.44
2022-12-03T20:02:08.176Z,66.82
2022-12-03T20:04:36.876Z,68.05
2022-12-03T20:07:03.921Z,67.58
2022-12-03T20:09:33.236Z,68.05
2022-12-03T20:12:04.178Z,68.54
2022-12-03T20:14:35.269Z,68.30
2022-12-03T20:17:02.686Z,68.67
2022-12-03T20:19:30.519Z,69.74
2022-12-03T20:22:02.372Z,69.16
2022-12-03T20:24:34.255Z,68.71
2022-12-03T20:27:04.312Z,69.55
2022-12-03T20:29:31.544Z,68.72
2022-12-03T20:31:58.388Z,69.33
2022-12-03T20:34:35.553Z,68.18
2022-12-03T20:37:04.647Z,68.36
2022-12-03T20:39:31.252Z,68.14
2022-12-03T20:42:00.781Z,67.53
2022-12-03T20:44:28.506Z,69.03
2022-12-03T20:46:57.621Z,70.30
2022-12-03T20:49:26.838Z,69.39
2022-12-03T20:51:57.019Z,70.27
2022-12-03T20:54:28.073Z,67.70
2022-12-03T20:56:55.073Z,68.52
2022-12-03T20:59:22.042Z,67.59
2022-12-03T21:11:21.374Z,70.38
2022-12-03T21:13:53.931Z,69.34
2022-12-03T21:16:34.143Z,68.90
2022-12-03T21:19:09.742Z,69.43
2022-12-03T21:21:40.766Z,68.84
2022-12-03T21:24:07.651Z,68.79
2022-12-03T21:26:34.973Z,69.55
2022-12-03T21:29:01.818Z,68.32
2022-12-03T21:31:28.996Z,67.27
2022-12-03T21:33:56.187Z,68.99
2022-12-03T21:39:07.830Z,69.38
2022-12-03T21:41:36.185Z,67.94
2022-12-03T21:44:04.273Z,68.26
2022-12-03T21:47:11.971Z,68.69
2022-12-03T21:49:20.569Z,67.75
2022-12-03T21:51:49.432Z,66.59
2022-12-03T21:54:16.622Z,65.62
2022-12-03T21:56:43.986Z,63.99
2022-12-03T21:59:10.872Z,64.44
2022-12-03T22:18:35.771Z,65.96
2022-12-03T22:21:02.555Z,65.57
2022-12-03T22:23:33.954Z,65.69
2022-12-03T22:26:01.046Z,66.18
2022-12-03T22:28:27.995Z,66.04
2022-12-03T22:30:59.972Z,64.71
2022-12-03T22:33:32.268Z,65.89
2022-12-03T22:35:59.211Z,66.83
2022-12-03T22:38:29.500Z,66.22
2022-12-03T22:41:05.150Z,67.44
2022-12-03T22:43:41.590Z,67.53
2022-12-03T22:46:08.517Z,66.46
2022-12-03T22:48:35.631Z,67.05
2022-12-03T22:51:02.212Z,67.78
2022-12-03T22:53:29.880Z,68.02
2022-12-03T22:55:57.553Z,68.25
2022-12-03T22:58:25.458Z,68.17
2022-12-03T23:00:53.001Z,68.47
2022-12-03T23:03:20.198Z,69.03
2022-12-03T23:05:47.379Z,68.18
2022-12-03T23:08:15.331Z,67.78
2022-12-03T23:13:36.645Z,67.74
2022-12-03T23:16:14.338Z,67.79
2022-12-03T23:18:49.931Z,67.63
2022-12-03T23:21:17.901Z,67.28
2022-12-03T23:23:47.576Z,65.04
2022-12-03T23:26:17.062Z,61.98
2022-12-03T23:28:47.213Z,62.62
2022-12-03T23:31:14.296Z,64.43
2022-12-03T23:33:51.504Z,65.77
2022-12-03T23:36:18.919Z,63.95
2022-12-03T23:38:45.629Z,63.02
2022-12-03T23:41:15.041Z,65.22
2022-12-03T23:43:41.793Z,65.47
2022-12-03T23:46:08.556Z,64.69
2022-12-03T23:48:37.306Z,64.33
2022-12-03T23:51:07.101Z,65.42
2022-12-03T23:53:37.191Z,65.49
2022-12-03T23:56:06.106Z,65.64
2022-12-03T23:58:36.713Z,67.22
